sensor_id;sensor_type;location;lat;lon;timestamp;temperature;humidity
15765;DHT22;7983;50.744;7.086;2022-11-11T00:00:37;10.80;99.90
15765;DHT22;7983;50.744;7.086;2022-11-11T00:03:03;10.70;99.90
15765;DHT22;7983;50.744;7.086;2022-11-11T00:05:32;10.70;99.90
15765;DHT22;7983;50.744;7.086;2022-11-11T00:07:58;10.70;99.90
15765;DHT22;7983;50.744;7.086;2022-11-11T00:10:28;10.70;99.90
15765;DHT22;7983;50.744;7.086;2022-11-11T00:13:00;10.70;99.90
15765;DHT22;7983;50.744;7.086;2022-11-11T00:15:27;10.70;99.90
15765;DHT22;7983;50.744;7.086;2022-11-11T00:17:55;10.70;99.90
15765;DHT22;7983;50.744;7.086;2022-11-11T00:20:39;10.60;99.90
15765;DHT22;7983;50.744;7.086;2022-11-11T00:23:26;10.70;99.90
15765;DHT22;7983;50.744;7.086;2022-11-11T00:26:12;10.60;99.90
15765;DHT22;7983;50.744;7.086;2022-11-11T00:28:38;10.70;99.90
15765;DHT22;7983;50.744;7.086;2022-11-11T00:31:06;10.60;99.90
15765;DHT22;7983;50.744;7.086;2022-11-11T00:33:32;10.60;99.90
15765;DHT22;7983;50.744;7.086;2022-11-11T00:36:01;10.60;99.90
15765;DHT22;7983;50.744;7.086;2022-11-11T00:38:28;10.60;99.90
15765;DHT22;7983;50.744;7.086;2022-11-11T00:41:22;10.60;99.90
15765;DHT22;7983;50.744;7.086;2022-11-11T00:43:53;10.60;99.90
15765;DHT22;7983;50.744;7.086;2022-11-11T00:46:19;10.60;99.90
15765;DHT22;7983;50.744;7.086;2022-11-11T00:49:03;10.60;99.90
15765;DHT22;7983;50.744;7.086;2022-11-11T00:51:47;10.60;99.90
15765;DHT22;7983;50.744;7.086;2022-11-11T00:54:13;10.60;99.90
15765;DHT22;7983;50.744;7.086;2022-11-11T00:56:38;10.60;99.90
15765;DHT22;7983;50.744;7.086;2022-11-11T00:59:07;10.50;99.90
15765;DHT22;7983;50.744;7.086;2022-11-11T01:01:34;10.50;99.90
15765;DHT22;7983;50.744;7.086;2022-11-11T01:04:22;10.50;99.90
15765;DHT22;7983;50.744;7.086;2022-11-11T01:06:48;10.50;99.90
15765;DHT22;7983;50.744;7.086;2022-11-11T01:09:13;10.50;99.90
15765;DHT22;7983;50.744;7.086;2022-11-11T01:11:41;10.40;99.90
15765;DHT22;7983;50.744;7.086;2022-11-11T01:14:10;10.40;99.90
15765;DHT22;7983;50.744;7.086;2022-11-11T01:16:35;10.40;99.90
15765;DHT22;7983;50.744;7.086;2022-11-11T01:19:03;10.40;99.90
15765;DHT22;7983;50.744;7.086;2022-11-11T01:21:31;10.40;99.90
15765;DHT22;7983;50.744;7.086;2022-11-11T01:23:58;10.30;99.90
15765;DHT22;7983;50.744;7.086;2022-11-11T01:26:27;10.30;99.90
15765;DHT22;7983;50.744;7.086;2022-11-11T01:28:54;10.20;99.90
15765;DHT22;7983;50.744;7.086;2022-11-11T01:31:22;10.30;99.90
15765;DHT22;7983;50.744;7.086;2022-11-11T01:33:47;10.20;99.90
15765;DHT22;7983;50.744;7.086;2022-11-11T01:36:24;10.20;99.90
15765;DHT22;7983;50.744;7.086;2022-11-11T01:38:56;10.20;99.90
15765;DHT22;7983;50.744;7.086;2022-11-11T01:41:30;10.20;99.90
15765;DHT22;7983;50.744;7.086;2022-11-11T01:44:37;10.20;99.90
15765;DHT22;7983;50.744;7.086;2022-11-11T01:47:05;10.20;99.90
15765;DHT22;7983;50.744;7.086;2022-11-11T01:49:53;10.20;99.90
15765;DHT22;7983;50.744;7.086;2022-11-11T01:55:12;10.20;99.90
15765;DHT22;7983;50.744;7.086;2022-11-11T01:57:59;10.20;99.90
15765;DHT22;7983;50.744;7.086;2022-11-11T02:00:26;10.20;99.90
15765;DHT22;7983;50.744;7.086;2022-11-11T02:03:00;10.10;99.90
15765;DHT22;7983;50.744;7.086;2022-11-11T02:05:30;10.10;99.90
15765;DHT22;7983;50.744;7.086;2022-11-11T02:08:17;10.20;99.90
15765;DHT22;7983;50.744;7.086;2022-11-11T02:11:06;10.10;99.90
15765;DHT22;7983;50.744;7.086;2022-11-11T02:13:42;10.10;99.90
15765;DHT22;7983;50.744;7.086;2022-11-11T02:16:29;10.10;99.90
15765;DHT22;7983;50.744;7.086;2022-11-11T02:18:55;10.10;99.90
15765;DHT22;7983;50.744;7.086;2022-11-11T02:21:36;10.10;99.90
15765;DHT22;7983;50.744;7.086;2022-11-11T02:24:10;10.10;99.90
15765;DHT22;7983;50.744;7.086;2022-11-11T02:26:38;10.10;99.90
15765;DHT22;7983;50.744;7.086;2022-11-11T02:29:08;10.10;99.90
15765;DHT22;7983;50.744;7.086;2022-11-11T02:31:38;10.10;99.90
15765;DHT22;7983;50.744;7.086;2022-11-11T02:34:04;10.10;99.90
15765;DHT22;7983;50.744;7.086;2022-11-11T02:36:29;10.10;99.90
15765;DHT22;7983;50.744;7.086;2022-11-11T02:38:55;10.00;99.90
15765;DHT22;7983;50.744;7.086;2022-11-11T02:41:21;10.10;99.90
15765;DHT22;7983;50.744;7.086;2022-11-11T02:44:05;10.00;99.90
15765;DHT22;7983;50.744;7.086;2022-11-11T02:46:30;10.00;99.90
15765;DHT22;7983;50.744;7.086;2022-11-11T02:48:56;10.00;99.90
15765;DHT22;7983;50.744;7.086;2022-11-11T02:51:21;10.00;99.90
15765;DHT22;7983;50.744;7.086;2022-11-11T02:53:50;10.00;99.90
15765;DHT22;7983;50.744;7.086;2022-11-11T02:56:15;10.00;99.90
15765;DHT22;7983;50.744;7.086;2022-11-11T02:59:01;10.00;99.90
15765;DHT22;7983;50.744;7.086;2022-11-11T03:01:26;10.00;99.90
15765;DHT22;7983;50.744;7.086;2022-11-11T03:03:52;10.10;99.90
15765;DHT22;7983;50.744;7.086;2022-11-11T03:06:20;10.00;99.90
15765;DHT22;7983;50.744;7.086;2022-11-11T03:08:45;10.00;99.90
15765;DHT22;7983;50.744;7.086;2022-11-11T03:11:13;10.00;99.90
15765;DHT22;7983;50.744;7.086;2022-11-11T03:13:41;10.00;99.90
15765;DHT22;7983;50.744;7.086;2022-11-11T03:16:07;9.90;99.90
15765;DHT22;7983;50.744;7.086;2022-11-11T03:18:53;10.00;99.90
15765;DHT22;7983;50.744;7.086;2022-11-11T03:21:21;10.00;99.90
15765;DHT22;7983;50.744;7.086;2022-11-11T03:23:49;10.00;99.90
15765;DHT22;7983;50.744;7.086;2022-11-11T03:26:17;10.00;99.90
15765;DHT22;7983;50.744;7.086;2022-11-11T03:28:46;10.00;99.90
15765;DHT22;7983;50.744;7.086;2022-11-11T03:31:12;10.00;99.90
15765;DHT22;7983;50.744;7.086;2022-11-11T03:33:37;9.90;99.90
15765;DHT22;7983;50.744;7.086;2022-11-11T03:36:03;9.90;99.90
15765;DHT22;7983;50.744;7.086;2022-11-11T03:38:29;9.90;99.90
15765;DHT22;7983;50.744;7.086;2022-11-11T03:40:57;9.90;99.90
15765;DHT22;7983;50.744;7.086;2022-11-11T03:43:27;9.80;99.90
15765;DHT22;7983;50.744;7.086;2022-11-11T03:45:55;9.90;99.90
15765;DHT22;7983;50.744;7.086;2022-11-11T03:48:26;9.90;99.90
15765;DHT22;7983;50.744;7.086;2022-11-11T03:50:52;9.90;99.90
15765;DHT22;7983;50.744;7.086;2022-11-11T03:53:19;9.90;99.90
15765;DHT22;7983;50.744;7.086;2022-11-11T03:55:48;9.90;99.90
15765;DHT22;7983;50.744;7.086;2022-11-11T03:58:17;9.90;99.90
15765;DHT22;7983;50.744;7.086;2022-11-11T04:00:45;9.90;99.90
15765;DHT22;7983;50.744;7.086;2022-11-11T04:03:16;9.90;99.90
15765;DHT22;7983;50.744;7.086;2022-11-11T04:06:01;10.00;99.90
15765;DHT22;7983;50.744;7.086;2022-11-11T04:08:45;9.90;99.90
15765;DHT22;7983;50.744;7.086;2022-11-11T04:11:37;9.90;99.90
15765;DHT22;7983;50.744;7.086;2022-11-11T04:14:07;9.90;99.90
15765;DHT22;7983;50.744;7.086;2022-11-11T04:16:52;9.90;99.90
15765;DHT22;7983;50.744;7.086;2022-11-11T04:19:18;9.90;99.90
15765;DHT22;7983;50.744;7.086;2022-11-11T04:22:02;9.90;99.90
15765;DHT22;7983;50.744;7.086;2022-11-11T04:24:28;9.90;99.90
15765;DHT22;7983;50.744;7.086;2022-11-11T04:27:14;9.90;99.90
15765;DHT22;7983;50.744;7.086;2022-11-11T04:29:43;9.90;99.90
15765;DHT22;7983;50.744;7.086;2022-11-11T04:32:13;9.90;99.90
15765;DHT22;7983;50.744;7.086;2022-11-11T04:35:03;9.90;99.90
15765;DHT22;7983;50.744;7.086;2022-11-11T04:37:33;9.90;99.90
15765;DHT22;7983;50.744;7.086;2022-11-11T04:40:01;9.90;99.90
15765;DHT22;7983;50.744;7.086;2022-11-11T04:42:46;9.80;99.90
15765;DHT22;7983;50.744;7.086;2022-11-11T04:45:12;9.80;99.90
15765;DHT22;7983;50.744;7.086;2022-11-11T04:48:03;9.80;99.90
15765;DHT22;7983;50.744;7.086;2022-11-11T04:50:33;9.80;99.90
15765;DHT22;7983;50.744;7.086;2022-11-11T04:52:59;9.80;99.90
15765;DHT22;7983;50.744;7.086;2022-11-11T04:55:25;9.80;99.90
15765;DHT22;7983;50.744;7.086;2022-11-11T04:58:10;9.80;99.90
15765;DHT22;7983;50.744;7.086;2022-11-11T05:00:38;9.80;99.90
15765;DHT22;7983;50.744;7.086;2022-11-11T05:03:04;9.80;99.90
15765;DHT22;7983;50.744;7.086;2022-11-11T05:05:54;9.80;99.90
15765;DHT22;7983;50.744;7.086;2022-11-11T05:08:41;9.80;99.90
15765;DHT22;7983;50.744;7.086;2022-11-11T05:11:35;9.80;99.90
15765;DHT22;7983;50.744;7.086;2022-11-11T05:14:05;9.90;99.90
15765;DHT22;7983;50.744;7.086;2022-11-11T05:17:10;9.80;99.90
15765;DHT22;7983;50.744;7.086;2022-11-11T05:19:57;9.80;99.90
15765;DHT22;7983;50.744;7.086;2022-11-11T05:22:43;9.80;99.90
15765;DHT22;7983;50.744;7.086;2022-11-11T05:25:11;9.80;99.90
15765;DHT22;7983;50.744;7.086;2022-11-11T05:27:55;9.90;99.90
15765;DHT22;7983;50.744;7.086;2022-11-11T05:30:23;9.80;99.90
15765;DHT22;7983;50.744;7.086;2022-11-11T05:32:53;9.80;99.90
15765;DHT22;7983;50.744;7.086;2022-11-11T05:35:20;9.80;99.90
15765;DHT22;7983;50.744;7.086;2022-11-11T05:37:45;9.80;99.90
15765;DHT22;7983;50.744;7.086;2022-11-11T05:40:34;9.80;99.90
15765;DHT22;7983;50.744;7.086;2022-11-11T05:42:59;9.90;99.90
15765;DHT22;7983;50.744;7.086;2022-11-11T05:45:25;9.80;99.90
15765;DHT22;7983;50.744;7.086;2022-11-11T05:47:50;9.90;99.90
15765;DHT22;7983;50.744;7.086;2022-11-11T05:50:19;9.80;99.90
15765;DHT22;7983;50.744;7.086;2022-11-11T05:52:48;9.80;99.90
15765;DHT22;7983;50.744;7.086;2022-11-11T05:55:17;9.80;99.90
15765;DHT22;7983;50.744;7.086;2022-11-11T05:57:44;9.90;99.90
15765;DHT22;7983;50.744;7.086;2022-11-11T06:00:12;9.80;99.90
15765;DHT22;7983;50.744;7.086;2022-11-11T06:02:38;9.80;99.90
15765;DHT22;7983;50.744;7.086;2022-11-11T06:05:06;9.80;99.90
15765;DHT22;7983;50.744;7.086;2022-11-11T06:07:36;9.80;99.90
15765;DHT22;7983;50.744;7.086;2022-11-11T06:10:01;9.80;99.90
15765;DHT22;7983;50.744;7.086;2022-11-11T06:12:47;9.80;99.90
15765;DHT22;7983;50.744;7.086;2022-11-11T06:15:40;9.80;99.90
15765;DHT22;7983;50.744;7.086;2022-11-11T06:18:06;9.80;99.90
15765;DHT22;7983;50.744;7.086;2022-11-11T06:20:32;9.80;99.90
15765;DHT22;7983;50.744;7.086;2022-11-11T06:23:00;9.80;99.90
15765;DHT22;7983;50.744;7.086;2022-11-11T06:25:30;9.80;99.90
15765;DHT22;7983;50.744;7.086;2022-11-11T06:28:15;9.80;99.90
15765;DHT22;7983;50.744;7.086;2022-11-11T06:30:41;9.80;99.90
15765;DHT22;7983;50.744;7.086;2022-11-11T06:33:07;9.80;99.90
15765;DHT22;7983;50.744;7.086;2022-11-11T06:35:38;9.80;99.90
15765;DHT22;7983;50.744;7.086;2022-11-11T06:38:06;9.70;99.90
15765;DHT22;7983;50.744;7.086;2022-11-11T06:40:32;9.80;99.90
15765;DHT22;7983;50.744;7.086;2022-11-11T06:42:59;9.80;99.90
15765;DHT22;7983;50.744;7.086;2022-11-11T06:45:29;9.80;99.90
15765;DHT22;7983;50.744;7.086;2022-11-11T06:47:55;9.80;99.90
15765;DHT22;7983;50.744;7.086;2022-11-11T06:50:20;9.80;99.90
15765;DHT22;7983;50.744;7.086;2022-11-11T06:52:49;9.80;99.90
15765;DHT22;7983;50.744;7.086;2022-11-11T06:55:15;9.80;99.90
15765;DHT22;7983;50.744;7.086;2022-11-11T06:57:40;9.80;99.90
15765;DHT22;7983;50.744;7.086;2022-11-11T07:00:12;9.80;99.90
15765;DHT22;7983;50.744;7.086;2022-11-11T07:02:38;9.80;99.90
15765;DHT22;7983;50.744;7.086;2022-11-11T07:05:06;9.70;99.90
15765;DHT22;7983;50.744;7.086;2022-11-11T07:07:32;9.80;99.90
15765;DHT22;7983;50.744;7.086;2022-11-11T07:09:58;9.80;99.90
15765;DHT22;7983;50.744;7.086;2022-11-11T07:12:26;9.80;99.90
15765;DHT22;7983;50.744;7.086;2022-11-11T07:14:51;9.80;99.90
15765;DHT22;7983;50.744;7.086;2022-11-11T07:17:17;9.80;99.90
15765;DHT22;7983;50.744;7.086;2022-11-11T07:19:47;9.80;99.90
15765;DHT22;7983;50.744;7.086;2022-11-11T07:22:13;9.80;99.90
15765;DHT22;7983;50.744;7.086;2022-11-11T07:24:40;9.80;99.90
15765;DHT22;7983;50.744;7.086;2022-11-11T07:27:08;9.80;99.90
15765;DHT22;7983;50.744;7.086;2022-11-11T07:29:33;9.80;99.90
15765;DHT22;7983;50.744;7.086;2022-11-11T07:31:59;9.80;99.90
15765;DHT22;7983;50.744;7.086;2022-11-11T07:34:25;9.90;99.90
15765;DHT22;7983;50.744;7.086;2022-11-11T07:36:55;9.90;99.90
15765;DHT22;7983;50.744;7.086;2022-11-11T07:39:21;9.90;99.90
15765;DHT22;7983;50.744;7.086;2022-11-11T07:41:47;10.00;99.90
15765;DHT22;7983;50.744;7.086;2022-11-11T07:44:12;9.90;99.90
15765;DHT22;7983;50.744;7.086;2022-11-11T07:46:47;10.00;99.90
15765;DHT22;7983;50.744;7.086;2022-11-11T07:49:13;10.00;99.90
15765;DHT22;7983;50.744;7.086;2022-11-11T07:51:38;10.00;99.90
15765;DHT22;7983;50.744;7.086;2022-11-11T07:54:04;10.10;99.90
15765;DHT22;7983;50.744;7.086;2022-11-11T07:56:32;10.10;99.90
15765;DHT22;7983;50.744;7.086;2022-11-11T07:59:00;10.10;99.90
15765;DHT22;7983;50.744;7.086;2022-11-11T08:01:28;10.10;99.90
15765;DHT22;7983;50.744;7.086;2022-11-11T08:03:56;10.20;99.90
15765;DHT22;7983;50.744;7.086;2022-11-11T08:06:24;10.20;99.90
15765;DHT22;7983;50.744;7.086;2022-11-11T08:08:52;10.20;99.90
15765;DHT22;7983;50.744;7.086;2022-11-11T08:11:20;10.30;99.90
15765;DHT22;7983;50.744;7.086;2022-11-11T08:14:07;10.30;99.90
15765;DHT22;7983;50.744;7.086;2022-11-11T08:16:33;10.40;99.90
15765;DHT22;7983;50.744;7.086;2022-11-11T08:18:59;10.40;99.90
15765;DHT22;7983;50.744;7.086;2022-11-11T08:21:25;10.40;99.90
15765;DHT22;7983;50.744;7.086;2022-11-11T08:23:54;10.50;99.90
15765;DHT22;7983;50.744;7.086;2022-11-11T08:26:21;10.60;99.90
15765;DHT22;7983;50.744;7.086;2022-11-11T08:28:51;10.60;99.90
15765;DHT22;7983;50.744;7.086;2022-11-11T08:31:17;10.60;99.90
15765;DHT22;7983;50.744;7.086;2022-11-11T08:33:43;10.80;99.90
15765;DHT22;7983;50.744;7.086;2022-11-11T08:36:09;10.80;99.90
15765;DHT22;7983;50.744;7.086;2022-11-11T08:38:36;10.80;99.90
15765;DHT22;7983;50.744;7.086;2022-11-11T08:41:04;10.90;99.90
15765;DHT22;7983;50.744;7.086;2022-11-11T08:43:30;11.00;99.90
15765;DHT22;7983;50.744;7.086;2022-11-11T08:46:00;11.00;99.90
15765;DHT22;7983;50.744;7.086;2022-11-11T08:48:31;11.00;99.90
15765;DHT22;7983;50.744;7.086;2022-11-11T08:50:57;11.10;99.90
15765;DHT22;7983;50.744;7.086;2022-11-11T08:53:23;11.20;99.90
15765;DHT22;7983;50.744;7.086;2022-11-11T08:55:51;11.20;99.90
15765;DHT22;7983;50.744;7.086;2022-11-11T08:58:17;11.30;99.90
15765;DHT22;7983;50.744;7.086;2022-11-11T09:00:43;11.40;99.90
15765;DHT22;7983;50.744;7.086;2022-11-11T09:03:10;11.50;99.90
15765;DHT22;7983;50.744;7.086;2022-11-11T09:05:39;11.50;99.90
15765;DHT22;7983;50.744;7.086;2022-11-11T09:08:06;11.70;99.90
15765;DHT22;7983;50.744;7.086;2022-11-11T09:10:33;11.90;99.90
15765;DHT22;7983;50.744;7.086;2022-11-11T09:13:00;12.00;99.90
15765;DHT22;7983;50.744;7.086;2022-11-11T09:15:26;12.20;99.90
15765;DHT22;7983;50.744;7.086;2022-11-11T09:17:55;12.30;99.90
15765;DHT22;7983;50.744;7.086;2022-11-11T09:20:22;12.50;99.90
15765;DHT22;7983;50.744;7.086;2022-11-11T09:22:48;12.50;99.90
15765;DHT22;7983;50.744;7.086;2022-11-11T09:25:14;12.60;99.90
15765;DHT22;7983;50.744;7.086;2022-11-11T09:27:43;12.70;99.90
15765;DHT22;7983;50.744;7.086;2022-11-11T09:30:11;12.80;99.90
15765;DHT22;7983;50.744;7.086;2022-11-11T09:32:40;12.90;99.90
15765;DHT22;7983;50.744;7.086;2022-11-11T09:35:08;12.90;99.90
15765;DHT22;7983;50.744;7.086;2022-11-11T09:37:33;13.00;99.90
15765;DHT22;7983;50.744;7.086;2022-11-11T09:39:59;13.00;99.90
15765;DHT22;7983;50.744;7.086;2022-11-11T09:42:39;13.00;99.90
15765;DHT22;7983;50.744;7.086;2022-11-11T09:50:49;13.10;99.90
15765;DHT22;7983;50.744;7.086;2022-11-11T09:53:52;13.30;99.90
15765;DHT22;7983;50.744;7.086;2022-11-11T09:56:22;13.40;99.90
15765;DHT22;7983;50.744;7.086;2022-11-11T09:58:59;13.40;99.90
15765;DHT22;7983;50.744;7.086;2022-11-11T10:01:31;13.50;99.90
15765;DHT22;7983;50.744;7.086;2022-11-11T10:04:24;13.60;99.90
15765;DHT22;7983;50.744;7.086;2022-11-11T10:07:13;13.70;99.90
15765;DHT22;7983;50.744;7.086;2022-11-11T10:09:53;13.80;99.90
15765;DHT22;7983;50.744;7.086;2022-11-11T10:12:25;14.00;99.90
15765;DHT22;7983;50.744;7.086;2022-11-11T10:14:57;14.10;99.90
15765;DHT22;7983;50.744;7.086;2022-11-11T10:22:37;14.40;99.90
15765;DHT22;7983;50.744;7.086;2022-11-11T10:25:06;14.50;99.90
15765;DHT22;7983;50.744;7.086;2022-11-11T10:27:35;14.70;99.90
15765;DHT22;7983;50.744;7.086;2022-11-11T10:30:15;14.80;99.90
15765;DHT22;7983;50.744;7.086;2022-11-11T10:32:48;15.00;99.90
15765;DHT22;7983;50.744;7.086;2022-11-11T10:35:22;15.10;99.90
15765;DHT22;7983;50.744;7.086;2022-11-11T10:40:28;15.30;99.90
15765;DHT22;7983;50.744;7.086;2022-11-11T10:43:03;15.40;99.90
15765;DHT22;7983;50.744;7.086;2022-11-11T10:45:43;15.40;99.90
15765;DHT22;7983;50.744;7.086;2022-11-11T10:48:17;15.40;99.90
15765;DHT22;7983;50.744;7.086;2022-11-11T10:50:52;15.50;99.90
15765;DHT22;7983;50.744;7.086;2022-11-11T10:56:23;15.60;99.90
15765;DHT22;7983;50.744;7.086;2022-11-11T11:01:47;15.70;99.90
15765;DHT22;7983;50.744;7.086;2022-11-11T11:04:34;15.80;99.90
15765;DHT22;7983;50.744;7.086;2022-11-11T11:07:05;15.90;99.90
15765;DHT22;7983;50.744;7.086;2022-11-11T11:09:40;15.90;99.90
15765;DHT22;7983;50.744;7.086;2022-11-11T11:14:53;16.10;99.90
15765;DHT22;7983;50.744;7.086;2022-11-11T11:17:23;16.20;99.90
15765;DHT22;7983;50.744;7.086;2022-11-11T11:22:50;16.30;99.90
15765;DHT22;7983;50.744;7.086;2022-11-11T11:25:19;16.40;99.90
15765;DHT22;7983;50.744;7.086;2022-11-11T11:27:52;16.50;99.90
15765;DHT22;7983;50.744;7.086;2022-11-11T11:30:30;16.60;99.90
15765;DHT22;7983;50.744;7.086;2022-11-11T11:32:57;16.60;99.90
15765;DHT22;7983;50.744;7.086;2022-11-11T11:37:59;16.70;99.90
15765;DHT22;7983;50.744;7.086;2022-11-11T11:40:27;16.80;99.90
15765;DHT22;7983;50.744;7.086;2022-11-11T11:45:56;16.90;99.90
15765;DHT22;7983;50.744;7.086;2022-11-11T11:51:41;17.10;99.90
15765;DHT22;7983;50.744;7.086;2022-11-11T11:54:23;17.20;99.90
15765;DHT22;7983;50.744;7.086;2022-11-11T11:56:58;17.30;99.90
15765;DHT22;7983;50.744;7.086;2022-11-11T11:59:27;17.30;99.90
15765;DHT22;7983;50.744;7.086;2022-11-11T12:38:19;18.60;99.90
15765;DHT22;7983;50.744;7.086;2022-11-11T12:41:24;18.60;99.90
15765;DHT22;7983;50.744;7.086;2022-11-11T12:55:08;18.90;99.90
15765;DHT22;7983;50.744;7.086;2022-11-11T13:00:21;19.00;99.90
15765;DHT22;7983;50.744;7.086;2022-11-11T13:16:54;19.40;99.90
15765;DHT22;7983;50.744;7.086;2022-11-11T13:19:51;19.30;99.90
15765;DHT22;7983;50.744;7.086;2022-11-11T13:24:47;19.30;99.90
15765;DHT22;7983;50.744;7.086;2022-11-11T13:32:59;19.40;99.90
15765;DHT22;7983;50.744;7.086;2022-11-11T13:38:00;19.40;99.90
15765;DHT22;7983;50.744;7.086;2022-11-11T13:40:39;19.40;99.90
15765;DHT22;7983;50.744;7.086;2022-11-11T13:43:35;19.40;99.90
15765;DHT22;7983;50.744;7.086;2022-11-11T13:46:14;19.30;99.90
15765;DHT22;7983;50.744;7.086;2022-11-11T13:48:53;19.30;99.90
15765;DHT22;7983;50.744;7.086;2022-11-11T13:54:02;19.30;99.90
15765;DHT22;7983;50.744;7.086;2022-11-11T13:56:41;19.30;99.90
15765;DHT22;7983;50.744;7.086;2022-11-11T13:59:26;19.30;99.90
15765;DHT22;7983;50.744;7.086;2022-11-11T14:02:13;19.30;99.90
15765;DHT22;7983;50.744;7.086;2022-11-11T14:12:47;19.20;99.90
15765;DHT22;7983;50.744;7.086;2022-11-11T14:17:58;19.20;99.90
15765;DHT22;7983;50.744;7.086;2022-11-11T14:20:33;19.20;99.90
15765;DHT22;7983;50.744;7.086;2022-11-11T14:26:14;19.30;99.90
15765;DHT22;7983;50.744;7.086;2022-11-11T14:34:01;19.30;99.90
15765;DHT22;7983;50.744;7.086;2022-11-11T14:36:47;19.30;99.90
15765;DHT22;7983;50.744;7.086;2022-11-11T14:39:37;19.20;99.90
15765;DHT22;7983;50.744;7.086;2022-11-11T14:42:04;19.20;99.90
15765;DHT22;7983;50.744;7.086;2022-11-11T14:44:52;19.10;99.90
15765;DHT22;7983;50.744;7.086;2022-11-11T14:47:23;19.10;99.90
15765;DHT22;7983;50.744;7.086;2022-11-11T14:49:52;19.00;99.90
15765;DHT22;7983;50.744;7.086;2022-11-11T15:14:39;17.90;99.90
15765;DHT22;7983;50.744;7.086;2022-11-11T15:23:13;17.40;99.90
15765;DHT22;7983;50.744;7.086;2022-11-11T15:25:49;17.10;99.90
15765;DHT22;7983;50.744;7.086;2022-11-11T15:38:58;16.40;99.90
15765;DHT22;7983;50.744;7.086;2022-11-11T15:41:26;16.30;99.90
15765;DHT22;7983;50.744;7.086;2022-11-11T15:43:55;16.10;99.90
15765;DHT22;7983;50.744;7.086;2022-11-11T15:46:25;16.10;99.90
15765;DHT22;7983;50.744;7.086;2022-11-11T15:48:52;15.90;99.90
15765;DHT22;7983;50.744;7.086;2022-11-11T15:51:33;15.90;99.90
15765;DHT22;7983;50.744;7.086;2022-11-11T15:54:18;15.80;99.90
15765;DHT22;7983;50.744;7.086;2022-11-11T15:56:46;15.70;99.90
15765;DHT22;7983;50.744;7.086;2022-11-11T15:59:23;15.60;99.90
15765;DHT22;7983;50.744;7.086;2022-11-11T16:01:50;15.50;99.90
15765;DHT22;7983;50.744;7.086;2022-11-11T16:04:19;15.40;99.90
15765;DHT22;7983;50.744;7.086;2022-11-11T16:06:46;15.40;99.90
15765;DHT22;7983;50.744;7.086;2022-11-11T16:09:13;15.30;99.90
15765;DHT22;7983;50.744;7.086;2022-11-11T16:11:41;15.20;99.90
15765;DHT22;7983;50.744;7.086;2022-11-11T16:14:16;15.20;99.90
15765;DHT22;7983;50.744;7.086;2022-11-11T16:16:44;15.10;99.90
15765;DHT22;7983;50.744;7.086;2022-11-11T16:21:55;15.00;99.90
15765;DHT22;7983;50.744;7.086;2022-11-11T16:24:31;15.00;99.90
15765;DHT22;7983;50.744;7.086;2022-11-11T16:27:01;14.90;99.90
15765;DHT22;7983;50.744;7.086;2022-11-11T16:29:35;14.90;99.90
15765;DHT22;7983;50.744;7.086;2022-11-11T16:34:52;14.80;99.90
15765;DHT22;7983;50.744;7.086;2022-11-11T16:37:21;14.70;99.90
15765;DHT22;7983;50.744;7.086;2022-11-11T16:39:49;14.70;99.90
15765;DHT22;7983;50.744;7.086;2022-11-11T16:42:21;14.60;99.90
15765;DHT22;7983;50.744;7.086;2022-11-11T16:50:22;14.50;99.90
15765;DHT22;7983;50.744;7.086;2022-11-11T16:53:00;14.40;99.90
15765;DHT22;7983;50.744;7.086;2022-11-11T16:55:38;14.40;99.90
15765;DHT22;7983;50.744;7.086;2022-11-11T16:58:16;14.30;99.90
15765;DHT22;7983;50.744;7.086;2022-11-11T17:00:47;14.30;99.90
15765;DHT22;7983;50.744;7.086;2022-11-11T17:03:22;14.30;99.90
15765;DHT22;7983;50.744;7.086;2022-11-11T17:11:05;14.20;99.90
15765;DHT22;7983;50.744;7.086;2022-11-11T17:13:38;14.20;99.90
15765;DHT22;7983;50.744;7.086;2022-11-11T17:16:05;14.20;99.90
15765;DHT22;7983;50.744;7.086;2022-11-11T17:18:37;14.10;99.90
15765;DHT22;7983;50.744;7.086;2022-11-11T17:21:04;14.10;99.90
15765;DHT22;7983;50.744;7.086;2022-11-11T17:23:30;14.10;99.90
15765;DHT22;7983;50.744;7.086;2022-11-11T17:25:57;14.00;99.90
15765;DHT22;7983;50.744;7.086;2022-11-11T17:28:32;14.00;99.90
15765;DHT22;7983;50.744;7.086;2022-11-11T17:31:08;14.00;99.90
15765;DHT22;7983;50.744;7.086;2022-11-11T17:33:34;14.00;99.90
15765;DHT22;7983;50.744;7.086;2022-11-11T17:36:00;13.90;99.90
15765;DHT22;7983;50.744;7.086;2022-11-11T17:38:26;13.90;99.90
15765;DHT22;7983;50.744;7.086;2022-11-11T17:40:52;13.90;99.90
15765;DHT22;7983;50.744;7.086;2022-11-11T17:43:18;13.80;99.90
15765;DHT22;7983;50.744;7.086;2022-11-11T17:45:47;13.70;99.90
15765;DHT22;7983;50.744;7.086;2022-11-11T17:48:15;13.70;99.90
15765;DHT22;7983;50.744;7.086;2022-11-11T17:50:40;13.60;99.90
15765;DHT22;7983;50.744;7.086;2022-11-11T17:53:06;13.50;99.90
15765;DHT22;7983;50.744;7.086;2022-11-11T17:55:32;13.50;99.90
15765;DHT22;7983;50.744;7.086;2022-11-11T17:58:01;13.40;99.90
15765;DHT22;7983;50.744;7.086;2022-11-11T18:00:27;13.30;99.90
15765;DHT22;7983;50.744;7.086;2022-11-11T18:02:53;13.20;99.90
15765;DHT22;7983;50.744;7.086;2022-11-11T18:05:19;13.10;99.90
15765;DHT22;7983;50.744;7.086;2022-11-11T18:07:44;13.00;99.90
15765;DHT22;7983;50.744;7.086;2022-11-11T18:10:15;12.90;99.90
15765;DHT22;7983;50.744;7.086;2022-11-11T18:12:41;12.80;99.90
15765;DHT22;7983;50.744;7.086;2022-11-11T18:15:09;12.80;99.90
15765;DHT22;7983;50.744;7.086;2022-11-11T18:17:35;12.70;99.90
15765;DHT22;7983;50.744;7.086;2022-11-11T18:20:00;12.70;99.90
15765;DHT22;7983;50.744;7.086;2022-11-11T18:22:26;12.60;99.90
15765;DHT22;7983;50.744;7.086;2022-11-11T18:24:54;12.50;99.90
15765;DHT22;7983;50.744;7.086;2022-11-11T18:27:21;12.50;99.90
15765;DHT22;7983;50.744;7.086;2022-11-11T18:29:50;12.40;99.90
15765;DHT22;7983;50.744;7.086;2022-11-11T18:32:15;12.40;99.90
15765;DHT22;7983;50.744;7.086;2022-11-11T18:34:41;12.40;99.90
15765;DHT22;7983;50.744;7.086;2022-11-11T18:37:09;12.40;99.90
15765;DHT22;7983;50.744;7.086;2022-11-11T18:39:34;12.40;99.90
15765;DHT22;7983;50.744;7.086;2022-11-11T18:42:05;12.40;99.90
15765;DHT22;7983;50.744;7.086;2022-11-11T18:44:31;12.30;99.90
15765;DHT22;7983;50.744;7.086;2022-11-11T18:46:56;12.30;99.90
15765;DHT22;7983;50.744;7.086;2022-11-11T18:49:24;12.30;99.90
15765;DHT22;7983;50.744;7.086;2022-11-11T18:51:50;12.20;99.90
15765;DHT22;7983;50.744;7.086;2022-11-11T18:54:15;12.20;99.90
15765;DHT22;7983;50.744;7.086;2022-11-11T18:56:41;12.20;99.90
15765;DHT22;7983;50.744;7.086;2022-11-11T18:59:07;12.20;99.90
15765;DHT22;7983;50.744;7.086;2022-11-11T19:01:37;12.10;99.90
15765;DHT22;7983;50.744;7.086;2022-11-11T19:04:05;12.10;99.90
15765;DHT22;7983;50.744;7.086;2022-11-11T19:06:33;12.10;99.90
15765;DHT22;7983;50.744;7.086;2022-11-11T19:09:02;12.10;99.90
15765;DHT22;7983;50.744;7.086;2022-11-11T19:11:29;12.00;99.90
15765;DHT22;7983;50.744;7.086;2022-11-11T19:13:58;12.00;99.90
15765;DHT22;7983;50.744;7.086;2022-11-11T19:16:24;12.00;99.90
15765;DHT22;7983;50.744;7.086;2022-11-11T19:18:51;12.00;99.90
15765;DHT22;7983;50.744;7.086;2022-11-11T19:21:19;11.90;99.90
15765;DHT22;7983;50.744;7.086;2022-11-11T19:23:48;11.90;99.90